TimeACDT,TemperatureF,Dew PointF,Humidity,Sea Level PressureIn,VisibilityMPH,Wind Direction,Wind SpeedMPH,Gust SpeedMPH,PrecipitationIn,Events,Conditions,WindDirDegrees,DateUTC
12:00 AM,59,49,61,,,SE,21.9,,,,,140,2013-11-19 13:30:00
12:30 AM,59,49,60,,,SE,13.8,,,,,130,2013-11-19 14:00:00
2:30 AM,57,49,66,,,SE,18.4,,,,,140,2013-11-19 16:00:00
3:00 AM,57,49,67,,,SE,18.4,,,,,140,2013-11-19 16:30:00
3:30 AM,57,49,68,,,SE,15.0,,,,,140,2013-11-19 17:00:00
5:30 AM,57,47,61,,,SE,18.4,,,,,140,2013-11-19 19:00:00
6:00 AM,57,47,61,,,SSE,18.4,,,,,150,2013-11-19 19:30:00
6:30 AM,57,47,61,,,SSE,17.3,,,,,160,2013-11-19 20:00:00
8:30 AM,57,47,60,,,SSE,23.0,,,,,150,2013-11-19 22:00:00
9:00 AM,58,48,61,,,SSE,23.0,,,,,150,2013-11-19 22:30:00
9:30 AM,57,49,65,,,SSE,21.9,,,,,150,2013-11-19 23:00:00
11:30 AM,58,47,57,,,SE,19.6,,,,,140,2013-11-20 01:00:00
12:00 PM,58,47,57,,,SSE,20.7,,,,,160,2013-11-20 01:30:00
12:30 PM,59,47,53,,,SE,18.4,,,,,140,2013-11-20 02:00:00
2:30 PM,60,46,50,,,SSE,17.3,,,,,150,2013-11-20 04:00:00
3:00 PM,63,46,43,,,SSE,18.4,,,,,150,2013-11-20 04:30:00
3:30 PM,64,46,41,,,SSE,16.1,,,,,150,2013-11-20 05:00:00
5:30 PM,61,44,43,,,South,19.6,,,,,170,2013-11-20 07:00:00
6:00 PM,60,46,48,,,SSE,16.1,,,,,150,2013-11-20 07:30:00
6:30 PM,58,46,55,,,SSE,16.1,,,,,150,2013-11-20 08:00:00
8:30 PM,55,46,62,,,South,11.5,,,,,170,2013-11-20 10:00:00
9:00 PM,55,46,63,,,SSE,13.8,,,,,160,2013-11-20 10:30:00
9:30 PM,54,46,65,,,SSE,13.8,,,,,160,2013-11-20 11:00:00
11:30 PM,54,46,66,,,SSE,15.0,,,,,150,2013-11-20 13:00:00